Time;durP1;ratioP1;P1;durP2;ratioP2;P2;SDS_P1;SDS_P2;PMS_P1;PMS_P2;Temp;Humidity;BMP_temperature;BMP_pressure;BME280_temperature;BME280_humidity;BME280_pressure;Samples;Min_cycle;Max_cycle;Signal;HPM_P1;HPM_P2
2023/04/04 00:01:03;;;;;;;6.25;3.65;;;2.60;99.90;;;;;;4998868;28;21484;-53
2023/04/04 00:03:29;;;;;;;8.20;3.42;;;2.60;99.90;;;;;;4979811;28;20054;-51
2023/04/04 00:05:55;;;;;;;5.25;3.60;;;2.60;99.90;;;;;;5004169;28;20134;-53
2023/04/04 00:08:21;;;;;;;7.15;3.60;;;2.60;99.90;;;;;;5000928;28;20745;-51
2023/04/04 00:10:47;;;;;;;3.50;2.92;;;2.60;99.90;;;;;;5000670;28;21750;-53
2023/04/04 00:13:12;;;;;;;6.63;3.28;;;2.50;99.90;;;;;;5002515;28;20054;-51
2023/04/04 00:15:38;;;;;;;8.40;3.67;;;2.50;99.90;;;;;;4983925;28;20095;-53
2023/04/04 00:18:04;;;;;;;5.75;3.20;;;2.50;99.90;;;;;;5002106;28;20419;-55
2023/04/04 00:20:30;;;;;;;10.38;3.30;;;2.40;99.90;;;;;;5003390;28;20041;-52
2023/04/04 00:22:59;;;;;;;5.93;3.85;;;2.40;99.90;;;;;;5003127;28;20624;-51
2023/04/04 00:25:25;;;;;;;7.97;3.50;;;2.40;99.90;;;;;;5002626;28;20136;-55
2023/04/04 00:27:50;;;;;;;8.30;3.67;;;2.40;99.90;;;;;;5003534;28;20132;-51
2023/04/04 00:30:16;;;;;;;8.55;3.90;;;2.40;99.90;;;;;;4999339;28;20100;-54
2023/04/04 00:32:42;;;;;;;7.70;4.03;;;2.40;99.90;;;;;;4999714;28;20053;-53
2023/04/04 00:35:08;;;;;;;9.30;4.38;;;2.40;99.90;;;;;;5001273;28;20057;-54
2023/04/04 00:37:34;;;;;;;7.72;3.58;;;2.40;99.90;;;;;;5002139;28;20208;-52
2023/04/04 00:40:00;;;;;;;9.95;4.57;;;2.40;99.90;;;;;;5001619;28;20085;-53
2023/04/04 00:42:26;;;;;;;7.10;3.85;;;2.40;99.90;;;;;;4998677;28;20177;-52
2023/04/04 00:44:52;;;;;;;9.52;4.22;;;2.40;99.90;;;;;;5001204;28;22297;-55
2023/04/04 00:47:22;;;;;;;9.82;4.47;;;2.40;99.90;;;;;;5002824;28;20068;-52
2023/04/04 00:49:47;;;;;;;7.57;4.13;;;2.40;99.90;;;;;;4985081;28;20072;-52
2023/04/04 00:52:13;;;;;;;10.57;4.57;;;2.40;99.90;;;;;;4977072;28;20076;-53
2023/04/04 00:54:39;;;;;;;8.65;4.50;;;2.40;99.90;;;;;;4981995;28;20053;-52
2023/04/04 00:57:07;;;;;;;8.77;4.30;;;2.40;99.90;;;;;;5001392;28;20052;-54
2023/04/04 00:59:33;;;;;;;7.55;4.60;;;2.40;99.90;;;;;;4990124;28;21048;-51
2023/04/04 01:01:59;;;;;;;7.75;4.20;;;2.40;99.90;;;;;;4998859;28;20361;-54
2023/04/04 01:04:28;;;;;;;9.25;4.53;;;2.40;99.90;;;;;;4999264;28;20042;-51
2023/04/04 01:06:54;;;;;;;11.30;4.75;;;2.40;99.90;;;;;;5001690;28;20076;-51
2023/04/04 01:09:21;;;;;;;7.97;4.40;;;2.30;99.90;;;;;;4998500;28;20503;-52
2023/04/04 01:11:47;;;;;;;9.25;4.65;;;2.30;99.90;;;;;;5002653;28;20054;-54
2023/04/04 01:14:13;;;;;;;6.35;4.68;;;2.30;99.90;;;;;;5001509;28;20153;-52
2023/04/04 01:16:40;;;;;;;6.45;4.13;;;2.30;99.90;;;;;;4996622;28;20050;-53
2023/04/04 01:19:10;;;;;;;6.57;4.50;;;2.30;99.90;;;;;;5000360;28;20046;-51
2023/04/04 01:21:37;;;;;;;9.25;4.50;;;2.30;99.90;;;;;;5000392;28;20925;-53
2023/04/04 01:24:04;;;;;;;7.53;4.57;;;2.30;99.90;;;;;;5001590;28;20041;-52
2023/04/04 01:26:30;;;;;;;8.43;4.60;;;2.30;99.90;;;;;;5000737;28;20046;-54
2023/04/04 01:28:57;;;;;;;9.43;4.43;;;2.30;99.90;;;;;;5003813;28;20497;-55
2023/04/04 01:31:48;;;;;;;7.30;4.28;;;2.30;99.90;;;;;;5002892;28;20478;-52
2023/04/04 01:34:43;;;;;;;6.65;4.85;;;2.20;99.90;;;;;;5001769;28;20430;-51
2023/04/04 01:37:25;;;;;;;8.90;4.60;;;2.30;99.90;;;;;;4956460;28;20057;-55
2023/04/04 01:40:16;;;;;;;9.80;4.60;;;2.20;99.90;;;;;;4987150;28;20069;-53
2023/04/04 01:42:44;;;;;;;10.02;4.50;;;2.20;99.90;;;;;;5003717;28;20041;-51
2023/04/04 01:45:11;;;;;;;9.45;4.47;;;2.20;99.90;;;;;;4987689;28;20047;-53
2023/04/04 01:47:40;;;;;;;8.02;4.32;;;2.20;99.90;;;;;;5003523;28;20042;-55
2023/04/04 01:50:10;;;;;;;8.13;4.13;;;2.20;99.90;;;;;;4998240;28;20045;-55
2023/04/04 01:52:36;;;;;;;6.75;3.90;;;2.20;99.90;;;;;;5003502;28;20096;-53
2023/04/04 01:55:03;;;;;;;7.80;4.30;;;2.20;99.90;;;;;;5003654;28;20123;-53
2023/04/04 01:57:29;;;;;;;9.50;4.20;;;2.10;99.90;;;;;;5005756;28;20595;-54
2023/04/04 01:59:55;;;;;;;8.02;4.10;;;2.10;99.90;;;;;;4995958;28;20077;-55
2023/04/04 02:02:21;;;;;;;8.70;4.10;;;2.10;99.90;;;;;;4980901;28;20128;-51
2023/04/04 02:04:47;;;;;;;6.05;3.80;;;2.10;99.90;;;;;;5006173;28;20068;-55
2023/04/04 02:07:13;;;;;;;7.72;3.78;;;2.10;99.90;;;;;;4992047;28;20053;-52
2023/04/04 02:09:39;;;;;;;5.80;3.65;;;2.10;99.90;;;;;;5004887;28;20050;-51
2023/04/04 02:12:07;;;;;;;8.50;4.28;;;2.00;99.90;;;;;;4989021;28;20049;-52
2023/04/04 02:14:33;;;;;;;7.55;3.80;;;2.00;99.90;;;;;;5006794;28;20113;-52
2023/04/04 02:16:59;;;;;;;9.30;3.97;;;2.00;99.90;;;;;;5006593;28;20132;-53
2023/04/04 02:19:25;;;;;;;8.00;3.63;;;2.00;99.90;;;;;;5006649;28;20111;-52
2023/04/04 02:21:50;;;;;;;9.88;4.28;;;2.00;99.90;;;;;;5006252;28;20052;-55
2023/04/04 02:24:16;;;;;;;7.30;4.07;;;2.00;99.90;;;;;;5007762;28;20507;-53
2023/04/04 02:26:42;;;;;;;9.13;3.67;;;1.90;99.90;;;;;;5005892;28;20820;-52
2023/04/04 02:29:07;;;;;;;5.93;3.15;;;1.90;99.90;;;;;;5006220;28;21514;-55
2023/04/04 02:31:33;;;;;;;8.40;3.30;;;1.90;99.90;;;;;;5003519;28;20506;-52
2023/04/04 02:33:59;;;;;;;7.72;3.88;;;1.90;99.90;;;;;;4987799;28;20450;-55
2023/04/04 02:36:25;;;;;;;6.93;3.80;;;1.80;99.90;;;;;;5004425;28;20050;-54
2023/04/04 02:38:51;;;;;;;7.45;3.55;;;1.80;99.90;;;;;;4989689;28;20183;-53
2023/04/04 02:41:16;;;;;;;6.88;3.25;;;1.90;99.90;;;;;;5004040;28;20509;-55
2023/04/04 02:43:42;;;;;;;8.02;3.90;;;1.80;99.90;;;;;;5004419;28;20037;-54
2023/04/04 02:46:08;;;;;;;6.18;3.58;;;1.80;99.90;;;;;;5002485;28;20041;-52
2023/04/04 02:48:35;;;;;;;6.32;3.65;;;1.80;99.90;;;;;;4999982;28;20091;-53
2023/04/04 02:51:01;;;;;;;7.28;3.35;;;1.80;99.90;;;;;;5003269;28;20100;-51
2023/04/04 02:53:27;;;;;;;7.43;3.65;;;1.80;99.90;;;;;;5002867;28;20512;-52
2023/04/04 02:55:52;;;;;;;6.10;3.58;;;1.80;99.90;;;;;;4999866;28;20030;-53
2023/04/04 02:58:18;;;;;;;8.05;3.35;;;1.70;99.90;;;;;;5003901;28;20036;-52
2023/04/04 03:01:02;;;;;;;6.57;3.28;;;1.70;99.90;;;;;;5002883;28;20103;-51
2023/04/04 03:03:28;;;;;;;6.85;3.25;;;1.70;99.90;;;;;;5003958;28;20083;-52
2023/04/04 03:05:53;;;;;;;5.88;3.30;;;1.70;99.90;;;;;;4983988;28;20053;-53
2023/04/04 03:08:19;;;;;;;5.57;3.58;;;1.70;99.90;;;;;;5001099;28;20107;-51
2023/04/04 03:10:45;;;;;;;8.20;3.58;;;1.70;99.90;;;;;;4973785;28;20053;-51
2023/04/04 03:13:11;;;;;;;8.88;3.40;;;1.60;99.90;;;;;;4999051;28;20125;-53
2023/04/04 03:15:39;;;;;;;9.02;3.33;;;1.60;99.90;;;;;;4999893;28;20152;-52
2023/04/04 03:18:05;;;;;;;7.20;3.13;;;1.60;99.90;;;;;;5005134;28;20042;-53
2023/04/04 03:20:31;;;;;;;9.65;3.40;;;1.60;99.90;;;;;;5004437;28;20034;-53
2023/04/04 03:22:57;;;;;;;9.60;3.53;;;1.60;99.90;;;;;;5002148;28;20042;-52
2023/04/04 03:25:23;;;;;;;5.75;2.75;;;1.60;99.90;;;;;;5001508;28;20088;-54
2023/04/04 03:27:49;;;;;;;11.57;3.03;;;1.60;99.90;;;;;;4999240;28;20142;-52
2023/04/04 03:30:15;;;;;;;5.30;3.08;;;1.60;99.90;;;;;;5004422;28;20050;-52
2023/04/04 03:32:40;;;;;;;8.10;2.70;;;1.60;99.90;;;;;;5003314;28;20044;-52
2023/04/04 03:35:06;;;;;;;5.03;3.15;;;1.60;99.90;;;;;;4998790;28;20054;-53
2023/04/04 03:37:32;;;;;;;4.20;2.90;;;1.50;99.90;;;;;;5002408;28;20038;-51
2023/04/04 03:39:58;;;;;;;6.18;3.15;;;1.50;99.90;;;;;;5002647;28;20175;-51
2023/04/04 03:42:25;;;;;;;7.03;2.92;;;1.50;99.90;;;;;;5004365;28;20488;-51
2023/04/04 03:44:52;;;;;;;4.90;3.00;;;1.50;99.90;;;;;;4968781;28;21305;-55
2023/04/04 03:47:18;;;;;;;10.93;3.35;;;1.50;99.90;;;;;;4995637;28;20048;-52
2023/04/04 03:49:44;;;;;;;6.07;2.97;;;1.40;99.90;;;;;;4988095;28;20396;-53
2023/04/04 03:52:10;;;;;;;7.32;3.15;;;1.40;99.90;;;;;;4998552;28;20053;-51
2023/04/04 03:54:36;;;;;;;5.38;3.33;;;1.40;99.90;;;;;;4999875;28;20167;-52
2023/04/04 03:57:02;;;;;;;7.88;3.40;;;1.40;99.90;;;;;;5003887;28;20090;-55
2023/04/04 03:59:28;;;;;;;5.63;3.00;;;1.40;99.90;;;;;;4999259;28;20917;-51
2023/04/04 04:01:54;;;;;;;7.53;3.08;;;1.40;99.90;;;;;;4998308;28;20557;-52
2023/04/04 04:04:19;;;;;;;7.97;3.33;;;1.30;99.90;;;;;;4999248;28;20123;-53
2023/04/04 04:06:47;;;;;;;7.80;3.20;;;1.40;99.90;;;;;;4990413;28;20030;-55
2023/04/04 04:09:13;;;;;;;4.10;2.88;;;1.30;99.90;;;;;;5000992;28;20053;-52
2023/04/04 04:11:39;;;;;;;6.18;3.33;;;1.30;99.90;;;;;;4986776;28;20063;-55
2023/04/04 04:14:06;;;;;;;6.25;3.00;;;1.30;99.90;;;;;;4985502;28;20049;-53
2023/04/04 04:16:32;;;;;;;8.43;3.35;;;1.30;99.90;;;;;;5000003;28;20103;-53
2023/04/04 04:18:57;;;;;;;6.50;3.33;;;1.20;99.90;;;;;;5004812;28;20935;-52
2023/04/04 04:21:24;;;;;;;5.80;3.72;;;1.20;99.90;;;;;;5007841;28;20038;-51
2023/04/04 04:23:50;;;;;;;6.30;3.33;;;1.20;99.90;;;;;;4988253;28;21005;-51
2023/04/04 04:26:16;;;;;;;4.93;3.40;;;1.20;99.90;;;;;;5007241;28;21173;-51
2023/04/04 04:28:42;;;;;;;9.40;3.75;;;1.20;99.90;;;;;;5006381;28;20053;-50
2023/04/04 04:31:09;;;;;;;7.25;3.30;;;1.20;99.90;;;;;;5003904;28;20549;-52
2023/04/04 04:33:35;;;;;;;7.40;3.45;;;1.20;99.90;;;;;;5002762;28;20120;-54
2023/04/04 04:36:02;;;;;;;6.20;3.78;;;1.10;99.90;;;;;;5006636;28;20381;-52
2023/04/04 04:38:29;;;;;;;7.30;3.33;;;1.10;99.90;;;;;;5005112;28;20042;-55
2023/04/04 04:40:55;;;;;;;5.43;3.47;;;1.00;99.90;;;;;;5003771;28;20045;-51
2023/04/04 04:43:21;;;;;;;5.05;3.30;;;1.10;99.90;;;;;;5005448;28;20954;-53
2023/04/04 04:45:47;;;;;;;6.47;3.63;;;1.00;99.90;;;;;;5007018;28;20544;-51
2023/04/04 04:48:15;;;;;;;7.38;3.50;;;1.00;99.90;;;;;;5003348;28;20194;-53
2023/04/04 04:50:43;;;;;;;7.22;3.60;;;1.00;99.90;;;;;;5005219;28;20481;-52
2023/04/04 04:53:09;;;;;;;8.38;3.38;;;1.00;99.90;;;;;;5009827;28;20044;-51
2023/04/04 04:55:35;;;;;;;8.80;3.70;;;0.90;99.90;;;;;;5007482;28;20038;-53
2023/04/04 04:58:02;;;;;;;8.57;3.30;;;0.90;99.90;;;;;;4992351;28;20064;-51
2023/04/04 05:00:28;;;;;;;5.07;3.72;;;0.90;99.90;;;;;;5011403;28;20075;-51
2023/04/04 05:02:59;;;;;;;5.55;3.47;;;0.90;99.90;;;;;;5010449;28;20056;-53
2023/04/04 05:05:25;;;;;;;6.78;4.00;;;0.80;99.90;;;;;;5004240;28;20401;-54
2023/04/04 05:07:51;;;;;;;7.50;4.22;;;0.80;99.90;;;;;;5005457;28;20049;-53
2023/04/04 05:10:17;;;;;;;8.70;5.07;;;0.80;99.90;;;;;;5006527;28;20763;-54
2023/04/04 05:12:43;;;;;;;9.10;4.90;;;0.70;99.90;;;;;;5002906;28;20111;-52
2023/04/04 05:15:10;;;;;;;7.63;5.05;;;0.70;99.90;;;;;;4975912;28;20743;-53
2023/04/04 05:17:36;;;;;;;9.88;5.18;;;0.70;99.90;;;;;;4999213;28;21117;-52
2023/04/04 05:20:02;;;;;;;8.90;5.07;;;0.70;99.90;;;;;;4981795;28;20133;-51
2023/04/04 05:22:28;;;;;;;10.93;5.43;;;0.70;99.90;;;;;;4996202;28;20041;-52
2023/04/04 05:24:53;;;;;;;6.38;4.90;;;0.70;99.90;;;;;;4981525;28;20472;-53
2023/04/04 05:27:19;;;;;;;8.45;4.50;;;0.70;99.90;;;;;;5004032;28;20084;-51
2023/04/04 05:29:46;;;;;;;8.43;4.25;;;0.70;99.90;;;;;;5003071;28;20050;-54
2023/04/04 05:32:13;;;;;;;11.13;4.90;;;0.70;99.90;;;;;;4984814;28;20068;-51
2023/04/04 05:34:38;;;;;;;6.28;4.57;;;0.70;99.90;;;;;;5001829;28;20497;-54
2023/04/04 05:37:04;;;;;;;8.05;4.60;;;0.70;99.90;;;;;;4994923;28;20042;-52
2023/04/04 05:39:30;;;;;;;6.40;4.22;;;0.60;99.90;;;;;;4987174;28;20168;-52
2023/04/04 05:41:56;;;;;;;7.25;4.18;;;0.70;99.90;;;;;;4983241;28;20397;-52
2023/04/04 05:44:22;;;;;;;5.57;4.32;;;0.70;99.90;;;;;;4999849;28;20037;-50
2023/04/04 05:46:48;;;;;;;7.22;4.03;;;0.70;99.90;;;;;;4996791;28;20095;-52
2023/04/04 05:49:13;;;;;;;8.70;4.35;;;0.70;99.90;;;;;;4998485;28;20041;-51
2023/04/04 05:51:39;;;;;;;6.18;3.67;;;0.70;99.90;;;;;;5011831;28;20041;-53
2023/04/04 05:54:08;;;;;;;11.07;4.45;;;0.70;99.90;;;;;;5007316;28;20533;-51
2023/04/04 05:56:34;;;;;;;9.57;4.18;;;0.70;99.90;;;;;;5008538;28;20124;-55
2023/04/04 05:59:01;;;;;;;6.18;3.97;;;0.80;99.90;;;;;;5001049;28;20116;-52
2023/04/04 06:01:28;;;;;;;7.85;4.00;;;0.70;99.90;;;;;;5004386;28;20208;-57
2023/04/04 06:03:54;;;;;;;6.90;4.35;;;0.80;99.90;;;;;;5006351;28;20072;-55
2023/04/04 06:06:20;;;;;;;9.63;4.10;;;0.80;99.90;;;;;;5003719;28;20587;-52
2023/04/04 06:08:46;;;;;;;8.93;4.10;;;0.90;99.90;;;;;;5010195;28;20045;-54
2023/04/04 06:11:12;;;;;;;8.00;3.75;;;0.90;99.90;;;;;;5000198;28;20148;-52
2023/04/04 06:13:38;;;;;;;7.30;4.00;;;0.90;99.90;;;;;;5013578;28;20393;-52
2023/04/04 06:16:05;;;;;;;7.28;4.32;;;0.90;99.90;;;;;;5006052;28;20041;-53
2023/04/04 06:18:30;;;;;;;10.30;4.20;;;1.00;99.90;;;;;;4989820;28;20080;-52
2023/04/04 06:20:56;;;;;;;7.97;3.95;;;1.10;99.90;;;;;;5013017;28;20042;-52
2023/04/04 06:23:22;;;;;;;7.97;3.58;;;1.10;99.90;;;;;;5013409;28;20044;-52
2023/04/04 06:25:48;;;;;;;8.35;3.80;;;1.20;99.90;;;;;;4992501;28;20441;-52
2023/04/04 06:28:16;;;;;;;8.65;4.07;;;1.20;99.90;;;;;;5007698;28;20053;-51
2023/04/04 06:30:43;;;;;;;6.28;3.55;;;1.30;99.90;;;;;;5011120;28;21790;-52
2023/04/04 06:33:09;;;;;;;8.23;3.90;;;1.30;99.90;;;;;;5011787;28;20407;-51
2023/04/04 06:35:35;;;;;;;6.93;3.50;;;1.40;99.90;;;;;;5017539;28;20041;-52
2023/04/04 06:38:03;;;;;;;7.50;3.53;;;1.40;99.90;;;;;;5014576;28;20096;-51
2023/04/04 06:40:29;;;;;;;6.65;3.50;;;1.50;99.90;;;;;;5013861;28;20045;-52
2023/04/04 06:42:57;;;;;;;11.32;3.65;;;1.50;99.90;;;;;;5014134;28;20065;-53
2023/04/04 06:45:23;;;;;;;7.20;3.65;;;1.60;99.90;;;;;;5011497;28;20430;-51
2023/04/04 06:47:52;;;;;;;8.95;3.55;;;1.60;99.90;;;;;;5005108;28;20042;-52
2023/04/04 06:50:18;;;;;;;7.63;3.55;;;1.70;99.90;;;;;;5014795;28;20037;-53
2023/04/04 06:52:44;;;;;;;7.47;3.60;;;1.70;99.90;;;;;;5014327;28;20041;-52
2023/04/04 06:55:10;;;;;;;7.70;3.33;;;1.80;99.90;;;;;;5013408;28;20496;-54
2023/04/04 06:57:37;;;;;;;5.32;3.30;;;1.90;99.90;;;;;;5015045;28;20046;-53
2023/04/04 07:00:04;;;;;;;6.13;3.45;;;1.90;99.90;;;;;;4999225;28;20065;-54
2023/04/04 07:02:30;;;;;;;7.55;3.35;;;2.00;99.90;;;;;;5005441;28;20507;-52
2023/04/04 07:04:56;;;;;;;6.22;3.22;;;2.10;99.90;;;;;;5004487;28;20044;-52
2023/04/04 07:07:21;;;;;;;5.95;3.50;;;2.20;99.90;;;;;;5003966;28;20050;-51
2023/04/04 07:09:47;;;;;;;8.48;3.33;;;2.20;99.90;;;;;;5006805;28;20546;-51
2023/04/04 07:12:13;;;;;;;6.28;2.58;;;2.30;99.90;;;;;;5008835;28;20057;-52
2023/04/04 07:14:38;;;;;;;4.50;2.58;;;2.40;99.90;;;;;;4992764;28;20049;-53
2023/04/04 07:17:05;;;;;;;6.47;2.88;;;2.40;99.90;;;;;;5013856;28;20421;-53
2023/04/04 07:19:30;;;;;;;5.97;2.42;;;2.50;99.90;;;;;;5009160;28;20415;-55
2023/04/04 07:21:56;;;;;;;4.72;2.40;;;2.60;99.90;;;;;;5015967;28;20041;-52
2023/04/04 07:24:22;;;;;;;5.18;2.45;;;2.70;99.90;;;;;;5018954;28;20061;-52
2023/04/04 07:26:48;;;;;;;4.75;2.50;;;2.70;99.90;;;;;;5017085;28;20030;-54
2023/04/04 07:29:13;;;;;;;5.88;2.28;;;2.90;99.90;;;;;;5015612;28;20046;-55
2023/04/04 07:31:39;;;;;;;6.78;2.85;;;3.00;99.90;;;;;;5014733;28;20633;-51
2023/04/04 07:34:06;;;;;;;6.00;2.75;;;3.00;99.90;;;;;;5015828;28;20137;-55
2023/04/04 07:36:31;;;;;;;7.10;3.22;;;3.20;99.90;;;;;;5012348;28;20046;-53
2023/04/04 07:38:57;;;;;;;7.93;3.28;;;3.10;99.90;;;;;;5010310;28;20076;-52
2023/04/04 07:41:24;;;;;;;8.32;2.90;;;3.20;99.90;;;;;;5008991;28;20049;-52
2023/04/04 07:43:50;;;;;;;3.53;2.50;;;3.30;99.90;;;;;;5006990;28;20049;-52
2023/04/04 07:46:16;;;;;;;3.90;2.35;;;3.40;99.90;;;;;;5010193;28;20480;-52
2023/04/04 07:48:42;;;;;;;7.35;2.90;;;3.60;99.90;;;;;;4989039;28;21409;-53
2023/04/04 07:51:08;;;;;;;8.73;3.03;;;3.70;99.90;;;;;;5011682;28;20037;-53
2023/04/04 07:53:34;;;;;;;4.38;2.50;;;3.80;99.90;;;;;;4994368;28;20143;-52
2023/04/04 07:56:05;;;;;;;8.35;3.17;;;3.90;99.90;;;;;;5005854;28;20140;-52
2023/04/04 07:58:35;;;;;;;4.60;2.63;;;4.10;99.90;;;;;;5007307;28;20438;-52
2023/04/04 08:01:02;;;;;;;6.05;2.80;;;4.20;99.90;;;;;;5009391;28;20079;-52
2023/04/04 08:03:28;;;;;;;4.63;2.72;;;4.40;99.90;;;;;;5013484;28;20381;-52
2023/04/04 08:05:54;;;;;;;3.80;2.20;;;4.50;99.90;;;;;;5009581;28;20495;-51
2023/04/04 08:08:20;;;;;;;5.82;2.80;;;4.60;99.90;;;;;;5010734;28;20053;-53
2023/04/04 08:10:46;;;;;;;5.65;2.25;;;4.70;99.90;;;;;;4999124;28;20041;-53
2023/04/04 08:13:12;;;;;;;7.13;2.92;;;4.80;99.90;;;;;;5013489;28;21351;-54
2023/04/04 08:15:38;;;;;;;5.35;2.58;;;4.90;99.90;;;;;;5010870;28;20043;-53
2023/04/04 08:18:04;;;;;;;4.47;2.15;;;5.00;99.80;;;;;;5013811;28;20152;-52
2023/04/04 08:20:30;;;;;;;6.53;2.65;;;5.10;99.90;;;;;;5011155;28;20169;-53
2023/04/04 08:22:57;;;;;;;7.53;2.40;;;5.20;99.90;;;;;;5010805;28;20048;-53
2023/04/04 08:25:23;;;;;;;7.10;2.85;;;5.40;99.70;;;;;;5010150;28;20042;-52
2023/04/04 08:27:48;;;;;;;4.97;2.50;;;5.60;99.40;;;;;;5011191;28;20049;-52
2023/04/04 08:30:14;;;;;;;7.15;2.70;;;5.70;99.20;;;;;;5011648;28;20056;-52
2023/04/04 08:32:41;;;;;;;6.32;2.22;;;5.80;99.00;;;;;;5011472;28;20458;-53
2023/04/04 08:35:08;;;;;;;5.45;2.72;;;6.00;99.00;;;;;;5011463;28;20053;-52
2023/04/04 08:37:34;;;;;;;5.97;2.53;;;6.10;98.90;;;;;;5011870;28;20072;-55
2023/04/04 08:40:02;;;;;;;4.50;2.25;;;6.20;98.90;;;;;;5013853;28;20096;-53
2023/04/04 08:42:31;;;;;;;6.30;2.65;;;6.40;98.80;;;;;;5014195;28;20103;-52
2023/04/04 08:45:00;;;;;;;6.25;2.50;;;6.50;98.80;;;;;;5010962;28;20037;-55
2023/04/04 08:47:29;;;;;;;7.50;2.25;;;6.60;98.10;;;;;;5011892;28;20042;-52
2023/04/04 08:49:57;;;;;;;7.22;2.08;;;6.70;97.90;;;;;;4995978;28;20147;-52
2023/04/04 08:52:25;;;;;;;9.65;2.85;;;6.80;97.80;;;;;;5010023;28;20120;-53
2023/04/04 08:54:52;;;;;;;7.18;2.35;;;7.00;97.80;;;;;;5008483;28;20045;-55
2023/04/04 08:57:18;;;;;;;8.82;2.58;;;7.10;97.30;;;;;;5011812;28;20079;-55
2023/04/04 08:59:44;;;;;;;5.47;2.03;;;7.20;96.50;;;;;;5010429;28;20493;-52
2023/04/04 09:02:11;;;;;;;5.90;1.85;;;7.30;95.80;;;;;;5011774;28;20041;-52
2023/04/04 09:04:38;;;;;;;6.00;1.67;;;7.30;95.10;;;;;;5013293;28;20504;-51
2023/04/04 09:07:05;;;;;;;4.40;1.85;;;7.40;94.60;;;;;;5012592;28;20103;-53
2023/04/04 09:09:32;;;;;;;3.92;1.83;;;7.40;94.20;;;;;;4987224;28;20563;-52
2023/04/04 09:12:00;;;;;;;4.15;2.17;;;7.60;94.40;;;;;;5007508;28;20041;-55
2023/04/04 09:14:27;;;;;;;3.10;1.67;;;7.70;93.90;;;;;;5007080;28;20045;-53
2023/04/04 09:16:53;;;;;;;4.03;2.08;;;7.80;93.00;;;;;;4991106;28;20959;-52
2023/04/04 09:19:19;;;;;;;3.47;1.83;;;7.90;92.40;;;;;;5013438;28;20148;-53
2023/04/04 09:21:48;;;;;;;5.05;1.88;;;8.00;91.60;;;;;;5011640;28;20445;-52
2023/04/04 09:24:15;;;;;;;3.75;1.77;;;8.00;91.10;;;;;;5006307;28;20446;-53
2023/04/04 09:26:52;;;;;;;4.75;1.75;;;8.10;90.70;;;;;;5011636;28;20045;-53
2023/04/04 09:29:19;;;;;;;4.53;2.17;;;8.20;90.50;;;;;;5008147;28;20046;-53
2023/04/04 09:31:48;;;;;;;4.72;1.80;;;8.30;90.40;;;;;;5012678;28;20037;-54
2023/04/04 09:34:15;;;;;;;4.63;1.83;;;8.40;90.00;;;;;;5015452;28;20098;-53
2023/04/04 09:36:41;;;;;;;4.22;1.83;;;8.50;89.00;;;;;;5011572;28;20137;-54
2023/04/04 09:39:07;;;;;;;9.13;2.20;;;8.60;87.60;;;;;;5009120;28;20124;-56
2023/04/04 09:41:33;;;;;;;5.10;1.90;;;8.60;85.40;;;;;;5012055;28;20063;-53
2023/04/04 09:44:00;;;;;;;4.72;2.05;;;8.70;85.40;;;;;;5009226;28;20124;-52
2023/04/04 09:46:26;;;;;;;7.40;2.00;;;8.70;84.20;;;;;;5014868;28;20056;-56
2023/04/04 09:48:54;;;;;;;3.35;2.03;;;8.80;84.30;;;;;;5013514;28;20042;-54
2023/04/04 09:51:20;;;;;;;5.07;1.95;;;8.90;83.10;;;;;;5010585;28;20045;-53
2023/04/04 09:53:50;;;;;;;9.48;2.08;;;8.90;82.20;;;;;;5007504;28;20045;-54
2023/04/04 09:56:16;;;;;;;4.85;2.17;;;9.00;82.00;;;;;;5007366;28;20060;-53
2023/04/04 09:58:46;;;;;;;5.95;2.33;;;9.10;81.30;;;;;;4988564;28;20133;-57
2023/04/04 10:01:12;;;;;;;5.43;2.05;;;9.10;80.00;;;;;;5009196;28;20111;-57
2023/04/04 10:03:38;;;;;;;5.20;2.00;;;9.20;80.90;;;;;;4998744;28;20038;-55
2023/04/04 10:06:11;;;;;;;6.30;2.38;;;9.20;79.40;;;;;;5017696;28;20048;-55
2023/04/04 10:08:42;;;;;;;;;;;9.30;78.10;;;;;;5018949;28;20029;-53
2023/04/04 10:11:08;;;;;;;4.10;2.10;;;9.40;80.20;;;;;;5015580;28;19924;-56
2023/04/04 10:13:39;;;;;;;5.32;2.08;;;9.50;79.00;;;;;;5020948;28;20447;-57
2023/04/04 10:16:05;;;;;;;4.55;2.40;;;9.60;78.90;;;;;;5018523;28;20512;-56
2023/04/04 10:18:33;;;;;;;4.65;2.17;;;9.70;78.70;;;;;;5018030;28;20129;-56
2023/04/04 10:21:01;;;;;;;7.03;2.67;;;9.80;77.50;;;;;;5012894;28;20360;-57
2023/04/04 10:23:27;;;;;;;5.45;2.53;;;9.80;77.40;;;;;;4981949;28;20084;-55
2023/04/04 10:25:54;;;;;;;6.38;3.00;;;10.00;78.30;;;;;;5016387;28;20072;-56
2023/04/04 10:28:20;;;;;;;6.20;2.80;;;10.20;78.50;;;;;;5018079;28;20041;-54
2023/04/04 10:31:17;;;;;;;6.07;2.60;;;10.40;77.60;;;;;;5018477;28;20049;-57
2023/04/04 10:34:08;;;;;;;5.32;2.80;;;10.50;76.10;;;;;;5017930;28;20056;-55
2023/04/04 10:36:44;;;;;;;5.38;2.60;;;10.60;77.40;;;;;;5016617;28;20073;-55
2023/04/04 10:39:37;;;;;;;4.45;2.97;;;10.60;76.00;;;;;;4997985;28;20542;-54
2023/04/04 10:42:05;;;;;;;5.10;3.30;;;10.60;75.00;;;;;;5016493;28;20152;-56
2023/04/04 10:44:33;;;;;;;5.80;3.03;;;10.60;75.90;;;;;;5016498;28;20049;-55
2023/04/04 10:47:09;;;;;;;8.15;3.13;;;10.60;76.20;;;;;;5014218;28;20045;-53
2023/04/04 10:49:37;;;;;;;7.95;3.45;;;10.70;76.30;;;;;;5019727;28;20045;-55
2023/04/04 10:52:03;;;;;;;5.28;2.60;;;10.80;75.70;;;;;;5015809;28;20549;-57
2023/04/04 10:54:29;;;;;;;4.72;3.10;;;10.80;75.90;;;;;;4990816;28;20041;-57
2023/04/04 10:56:59;;;;;;;5.85;3.28;;;10.90;75.80;;;;;;5009007;28;20809;-57
2023/04/04 10:59:25;;;;;;;5.55;2.90;;;10.90;74.80;;;;;;4980514;28;20072;-57
2023/04/04 11:02:01;;;;;;;8.50;3.55;;;10.80;74.30;;;;;;5010552;28;20057;-56
2023/04/04 11:04:32;;;;;;;6.82;3.28;;;10.80;73.80;;;;;;5013087;28;20049;-57
2023/04/04 11:07:12;;;;;;;5.47;3.00;;;10.70;72.80;;;;;;4994227;28;20063;-57
2023/04/04 11:09:48;;;;;;;5.32;2.83;;;10.60;74.20;;;;;;5004636;28;20069;-54
2023/04/04 11:12:22;;;;;;;6.68;3.08;;;10.80;74.70;;;;;;4987555;28;20151;-56
2023/04/04 11:14:54;;;;;;;5.13;3.10;;;11.00;74.30;;;;;;5007588;28;20077;-57
2023/04/04 11:17:43;;;;;;;6.70;2.97;;;11.10;72.00;;;;;;5006868;28;20068;-55
2023/04/04 11:20:10;;;;;;;4.25;2.75;;;11.10;72.00;;;;;;5010914;28;20045;-57
2023/04/04 11:22:36;;;;;;;6.18;3.08;;;11.20;73.10;;;;;;5010225;28;20037;-57
2023/04/04 11:25:25;;;;;;;9.25;2.90;;;11.20;71.20;;;;;;4962870;28;20038;-58
2023/04/04 11:27:58;;;;;;;4.70;2.60;;;11.20;70.50;;;;;;4999207;28;20519;-56
2023/04/04 11:30:27;;;;;;;6.53;3.25;;;11.30;71.10;;;;;;5010805;28;20054;-57
2023/04/04 11:32:58;;;;;;;5.40;2.42;;;11.30;70.20;;;;;;4994469;28;20397;-57
2023/04/04 11:35:24;;;;;;;9.25;2.70;;;11.50;69.50;;;;;;4999116;28;20042;-57
2023/04/04 11:37:50;;;;;;;6.38;2.40;;;11.50;68.50;;;;;;5015868;28;20045;-58
2023/04/04 11:40:16;;;;;;;4.90;2.70;;;11.60;67.40;;;;;;5013425;28;20045;-56
2023/04/04 11:42:42;;;;;;;7.20;3.00;;;11.70;66.80;;;;;;5012364;28;20037;-58
2023/04/04 11:45:10;;;;;;;8.18;2.78;;;11.70;66.10;;;;;;5012638;28;20041;-58
2023/04/04 11:47:38;;;;;;;5.35;2.67;;;11.70;66.00;;;;;;5015166;28;20426;-57
2023/04/04 11:50:09;;;;;;;5.78;2.70;;;11.80;65.80;;;;;;5014626;28;20045;-58
2023/04/04 11:52:35;;;;;;;3.90;2.13;;;11.90;65.80;;;;;;5013653;28;20365;-57
2023/04/04 11:55:01;;;;;;;3.40;2.42;;;12.10;65.60;;;;;;5012823;28;20068;-57
2023/04/04 11:57:27;;;;;;;5.53;2.70;;;12.10;64.20;;;;;;5014145;28;20459;-58
2023/04/04 11:59:52;;;;;;;7.90;2.20;;;12.20;64.30;;;;;;5010923;28;20064;-55
2023/04/04 12:02:30;;;;;;;4.47;2.47;;;12.20;64.00;;;;;;4998655;28;20057;-58
2023/04/04 12:04:56;;;;;;;3.97;2.30;;;12.40;63.80;;;;;;5011867;28;20111;-57
2023/04/04 12:07:25;;;;;;;4.82;2.40;;;12.40;63.00;;;;;;5014024;28;20045;-57
2023/04/04 12:09:52;;;;;;;6.80;2.30;;;12.40;62.80;;;;;;4994666;28;20053;-57
2023/04/04 12:12:18;;;;;;;5.32;2.30;;;12.40;62.70;;;;;;5013410;28;20053;-58
2023/04/04 12:14:44;;;;;;;2.67;2.08;;;12.60;64.20;;;;;;5011737;28;20050;-57
2023/04/04 12:17:10;;;;;;;7.45;2.55;;;12.90;64.00;;;;;;5009393;28;20101;-58
2023/04/04 12:19:37;;;;;;;3.22;2.22;;;13.00;61.90;;;;;;5012381;28;20041;-58
2023/04/04 12:22:03;;;;;;;4.72;2.50;;;13.00;60.70;;;;;;5008125;28;20454;-58
2023/04/04 12:24:29;;;;;;;8.93;2.67;;;12.90;60.90;;;;;;5010667;28;20068;-58
2023/04/04 12:26:57;;;;;;;6.22;2.60;;;12.90;60.80;;;;;;5004611;28;20053;-57
2023/04/04 12:29:26;;;;;;;3.78;2.50;;;12.80;60.00;;;;;;5009666;28;20041;-57
2023/04/04 12:31:54;;;;;;;6.28;2.63;;;12.80;60.30;;;;;;5011582;28;20136;-57
2023/04/04 12:34:27;;;;;;;4.15;2.20;;;12.80;59.60;;;;;;4977185;28;20117;-56
2023/04/04 12:36:55;;;;;;;4.28;2.58;;;12.80;60.00;;;;;;5007017;28;20481;-57
2023/04/04 12:39:24;;;;;;;7.35;2.50;;;12.90;60.30;;;;;;4992831;28;20038;-58
2023/04/04 12:41:54;;;;;;;6.38;2.60;;;12.90;59.10;;;;;;5011154;28;20138;-58
2023/04/04 12:44:36;;;;;;;7.78;2.70;;;12.90;59.40;;;;;;5011430;28;20183;-57
2023/04/04 12:47:16;;;;;;;7.32;2.92;;;13.00;60.50;;;;;;5011720;28;20042;-58
2023/04/04 12:49:47;;;;;;;4.40;2.75;;;13.10;60.20;;;;;;5015303;28;20049;-58
2023/04/04 12:52:22;;;;;;;4.70;2.63;;;13.20;60.40;;;;;;5005170;28;20080;-57
2023/04/04 12:54:50;;;;;;;4.60;2.42;;;13.30;59.90;;;;;;5003161;28;20420;-57
2023/04/04 12:57:23;;;;;;;5.05;2.55;;;13.50;60.00;;;;;;5010674;28;20710;-57